createdAt,value
2018-11-21T00:04:02.102Z,99700.19
2018-11-21T00:08:05.870Z,99700.62
2018-11-21T00:12:09.502Z,99704.11
2018-11-21T00:16:13.029Z,99697.23
2018-11-21T00:20:16.737Z,99686.44
2018-11-21T00:24:20.481Z,99685.61
2018-11-21T00:28:24.303Z,99684.22
2018-11-21T00:32:28.797Z,99679.44
2018-11-21T00:36:32.570Z,99670.31
2018-11-21T00:40:36.213Z,99682.02
2018-11-21T00:44:39.845Z,99685.97
2018-11-21T00:48:43.484Z,99682.56
2018-11-21T00:52:47.123Z,99679.59
2018-11-21T00:56:50.703Z,99684.11
2018-11-21T01:00:54.329Z,99678.53
2018-11-21T01:04:57.961Z,99676.31
2018-11-21T01:09:01.668Z,99673.35
2018-11-21T01:13:05.419Z,99668.06
2018-11-21T01:17:09.022Z,99675.09
2018-11-21T01:21:12.959Z,99677.27
2018-11-21T01:25:16.685Z,99671.86
2018-11-21T01:29:20.636Z,99670.03
2018-11-21T01:33:24.388Z,99664.26
2018-11-21T01:37:28.053Z,99652.88
2018-11-21T01:41:31.918Z,99655.96
2018-11-21T01:45:35.713Z,99663.39
2018-11-21T01:49:39.655Z,99663.47
2018-11-21T01:53:43.271Z,99664.77
2018-11-21T01:57:46.884Z,99670.47
2018-11-21T02:01:50.514Z,99671.45
2018-11-21T02:05:54.110Z,99664.46
2018-11-21T02:09:57.750Z,99669.67
2018-11-21T02:14:01.338Z,99670.15
2018-11-21T02:18:05.208Z,99685.34
2018-11-21T02:22:08.974Z,99691.42
2018-11-21T02:26:12.674Z,99700.99
2018-11-21T02:30:16.318Z,99707.91
2018-11-21T02:34:19.978Z,99703.13
2018-11-21T02:38:23.571Z,99718.30
2018-11-21T02:42:27.222Z,99719.56
2018-11-21T02:46:30.836Z,99719.09
2018-11-21T02:50:34.456Z,99731.83
2018-11-21T02:54:38.056Z,99736.73
2018-11-21T02:58:41.756Z,99741.55
2018-11-21T03:02:45.411Z,99745.04
2018-11-21T03:06:49.131Z,99747.77
2018-11-21T03:10:52.776Z,99746.50
2018-11-21T03:14:56.395Z,99759.13
2018-11-21T03:19:00.854Z,99766.09
2018-11-21T03:23:04.488Z,99762.16
2018-11-21T03:27:08.161Z,99773.44
2018-11-21T03:31:11.853Z,99773.35
2018-11-21T03:35:15.476Z,99779.05
2018-11-21T03:39:20.512Z,99784.34
2018-11-21T03:43:24.219Z,99778.70
2018-11-21T03:47:27.840Z,99782.66
2018-11-21T03:51:31.467Z,99780.95
2018-11-21T03:55:35.115Z,99778.73
2018-11-21T03:59:38.737Z,99775.61
2018-11-21T04:03:42.717Z,99783.41
2018-11-21T04:07:46.387Z,99777.66
2018-11-21T04:11:50.014Z,99779.05
2018-11-21T04:15:53.645Z,99786.48
2018-11-21T04:19:57.289Z,99787.36
2018-11-21T04:24:00.943Z,99787.75
2018-11-21T04:28:04.560Z,99788.22
2018-11-21T04:32:08.190Z,99790.83
2018-11-21T04:36:12.694Z,99792.63
2018-11-21T04:40:16.276Z,99794.36
2018-11-21T04:44:19.936Z,99788.78
2018-11-21T04:48:23.528Z,99787.56
2018-11-21T04:52:27.193Z,99782.74
2018-11-21T04:56:30.787Z,99782.78
2018-11-21T05:00:34.408Z,99780.56
2018-11-21T05:04:38.084Z,99782.78
2018-11-21T05:08:41.657Z,99784.16
2018-11-21T05:12:45.321Z,99779.86
2018-11-21T05:16:48.985Z,99777.33
2018-11-21T05:20:52.619Z,99774.24
2018-11-21T05:24:56.413Z,99768.19
2018-11-21T05:29:00.108Z,99763.80
2018-11-21T05:33:03.832Z,99763.36
2018-11-21T05:37:07.449Z,99776.10
2018-11-21T05:41:11.438Z,99784.88
2018-11-21T05:45:15.228Z,99789.72
2018-11-21T05:49:18.861Z,99795.02
2018-11-21T05:53:23.799Z,99790.27
2018-11-21T05:57:27.365Z,99791.58
2018-11-21T06:01:31.357Z,99800.98
2018-11-21T06:05:34.993Z,99808.42
2018-11-21T06:09:38.846Z,99809.73
2018-11-21T06:13:42.333Z,99810.56
2018-11-21T06:17:48.325Z,99815.27
2018-11-21T06:21:49.598Z,99817.95
2018-11-21T06:25:53.411Z,99818.47
2018-11-21T06:29:57.113Z,99826.43
2018-11-21T06:34:00.743Z,99825.60
2018-11-21T06:38:04.388Z,99832.65
2018-11-21T06:42:08.041Z,99831.78
2018-11-21T06:46:11.707Z,99837.88
2018-11-21T06:50:15.514Z,99850.56
2018-11-21T06:54:19.169Z,99850.56
2018-11-21T06:58:22.807Z,99856.55
2018-11-21T07:02:26.454Z,99853.55
2018-11-21T07:06:30.064Z,99860.14
2018-11-21T07:10:33.722Z,99871.94
2018-11-21T07:14:37.307Z,99873.68
2018-11-21T07:18:41.322Z,99882.00
2018-11-21T07:22:44.937Z,99878.55
2018-11-21T07:26:50.374Z,99886.98
2018-11-21T07:30:53.907Z,99888.41
2018-11-21T07:34:58.003Z,99890.75
2018-11-21T07:39:02.483Z,99887.75
2018-11-21T07:43:06.266Z,99902.20
2018-11-21T07:47:09.928Z,99900.41
2018-11-21T07:51:13.601Z,99899.95
2018-11-21T07:55:17.218Z,99897.33
2018-11-21T07:59:20.899Z,99901.13
2018-11-21T08:03:25.734Z,99908.65
2018-11-21T08:07:40.721Z,99910.88
2018-11-21T08:12:21.695Z,99915.86
2018-11-21T08:16:59.394Z,99906.80
2018-11-21T08:21:21.989Z,99912.58
2018-11-21T08:25:50.698Z,99922.23
2018-11-21T08:29:54.365Z,99924.42
2018-11-21T08:33:58.007Z,99927.39
2018-11-21T08:38:01.637Z,99919.91
2018-11-21T08:42:05.535Z,99922.83
2018-11-21T08:46:10.281Z,99918.00
2018-11-21T08:50:13.890Z,99923.23
2018-11-21T08:54:17.565Z,99919.86
2018-11-21T08:58:21.340Z,99925.17
2018-11-21T09:02:25.072Z,99929.17
2018-11-21T09:06:28.976Z,99929.61
2018-11-21T09:14:36.218Z,99930.59
2018-11-21T09:18:39.824Z,99932.77
2018-11-21T09:22:43.421Z,99932.81
2018-11-21T09:26:47.376Z,99934.20
2018-11-21T09:30:51.020Z,99938.13
2018-11-21T09:34:54.638Z,99932.94
2018-11-21T09:38:58.262Z,99922.91
2018-11-21T09:43:01.923Z,99919.42
2018-11-21T09:47:05.535Z,99922.48
2018-11-21T09:51:09.178Z,99921.72
2018-11-21T09:55:13.005Z,99913.48
2018-11-21T09:59:16.609Z,99910.91
2018-11-21T10:03:22.400Z,99908.73
2018-11-21T10:07:26.050Z,99913.52
2018-11-21T10:11:30.451Z,99906.62
2018-11-21T10:15:34.094Z,99908.84
2018-11-21T10:19:37.711Z,99910.66
2018-11-21T10:23:41.639Z,99909.35
2018-11-21T10:27:45.885Z,99908.04
2018-11-21T10:31:49.507Z,99901.50
2018-11-21T10:35:53.203Z,99906.38
2018-11-21T10:39:56.891Z,99910.73
2018-11-21T10:44:00.473Z,99902.05
2018-11-21T10:48:04.470Z,99895.91
2018-11-21T10:52:08.125Z,99900.74
2018-11-21T10:56:11.759Z,99906.92
2018-11-21T11:00:34.416Z,99909.10
2018-11-21T11:04:59.652Z,99903.47
2018-11-21T11:09:24.863Z,99906.48
2018-11-21T11:13:46.422Z,99909.57
2018-11-21T11:18:07.642Z,99908.66
2018-11-21T11:22:28.710Z,99909.14
2018-11-21T11:26:49.762Z,99903.87
2018-11-21T11:31:27.307Z,99912.22
2018-11-21T11:36:05.172Z,99912.26
2018-11-21T11:40:31.694Z,99910.08
2018-11-21T11:45:03.077Z,99914.91
2018-11-21T11:49:24.308Z,99910.66
2018-11-21T11:53:45.319Z,99919.45
2018-11-21T11:58:19.813Z,99925.70
2018-11-21T12:02:34.743Z,99921.34
2018-11-21T12:06:56.057Z,99922.28
2018-11-21T12:11:17.075Z,99929.33
2018-11-21T12:15:31.468Z,99924.60
2018-11-21T12:19:56.890Z,99919.81
2018-11-21T12:24:18.200Z,99909.01
2018-11-21T12:28:39.467Z,99917.77
2018-11-21T12:33:20.450Z,99916.99
2018-11-21T12:37:41.718Z,99908.67
2018-11-21T12:42:06.879Z,99918.34
2018-11-21T12:46:41.622Z,99930.25
2018-11-21T12:51:22.651Z,99924.67
2018-11-21T12:55:43.705Z,99930.75
2018-11-21T13:00:21.452Z,99927.66
2018-11-21T13:04:46.659Z,99924.91
2018-11-21T13:09:08.679Z,99922.33
2018-11-21T13:13:30.192Z,99920.59
2018-11-21T13:17:51.458Z,99929.31
2018-11-21T13:22:20.233Z,99926.19
2018-11-21T13:26:42.900Z,99926.13
2018-11-21T13:31:23.530Z,99933.06
2018-11-21T13:35:55.197Z,99929.61
2018-11-21T13:40:20.542Z,99930.95
2018-11-21T13:44:52.449Z,99938.30
2018-11-21T13:49:13.926Z,99952.63
2018-11-21T13:53:42.397Z,99955.64
2018-11-21T13:57:46.284Z,99963.85
2018-11-21T14:01:50.383Z,99963.37
2018-11-21T14:05:54.039Z,99976.47
2018-11-21T14:09:57.698Z,99972.61
2018-11-21T14:14:01.554Z,99979.12
2018-11-21T14:18:04.942Z,99974.39
2018-11-21T14:22:08.565Z,99975.70
2018-11-21T14:26:12.316Z,99982.68
2018-11-21T14:30:17.001Z,99981.38
2018-11-21T14:34:20.684Z,99988.35
2018-11-21T14:38:24.352Z,99986.20
2018-11-21T14:42:27.992Z,99992.27
2018-11-21T14:46:31.653Z,99986.97
2018-11-21T14:50:39.183Z,99991.33
2018-11-21T14:54:39.834Z,100001.76
2018-11-21T14:58:43.572Z,99997.33
2018-11-21T15:02:47.240Z,100003.35
2018-11-21T15:06:50.860Z,100000.27
2018-11-21T15:10:54.634Z,100007.67
2018-11-21T15:14:58.199Z,100014.22
2018-11-21T15:19:01.887Z,100013.82
2018-11-21T15:23:06.234Z,100026.06
2018-11-21T15:27:10.163Z,100023.41
2018-11-21T15:31:13.823Z,100014.37
2018-11-21T15:35:18.098Z,100028.47
2018-11-21T15:39:21.819Z,100033.27
2018-11-21T15:43:31.617Z,100032.84
2018-11-21T15:47:35.288Z,100033.63
2018-11-21T15:51:39.928Z,100039.19
2018-11-21T15:55:43.734Z,100041.73
2018-11-21T15:59:47.370Z,100045.14
2018-11-21T16:03:51.019Z,100043.44
2018-11-21T16:07:54.632Z,100046.96
2018-11-21T16:11:58.300Z,100046.12
2018-11-21T16:16:02.429Z,100051.52
2018-11-21T16:20:07.262Z,100052.10
2018-11-21T16:24:11.011Z,100060.54
2018-11-21T16:28:15.252Z,100060.62
2018-11-21T16:32:18.836Z,100066.29
2018-11-21T16:36:27.114Z,100065.13
2018-11-21T16:40:27.710Z,100076.52
2018-11-21T16:44:31.334Z,100066.48
2018-11-21T16:48:34.961Z,100072.11
2018-11-21T16:52:38.579Z,100075.56
2018-11-21T16:56:42.228Z,100071.53
2018-11-21T17:00:45.832Z,100074.50
2018-11-21T17:04:49.481Z,100083.19
2018-11-21T17:08:53.125Z,100078.27
2018-11-21T17:12:56.782Z,100083.78
2018-11-21T17:17:00.422Z,100080.62
2018-11-21T17:21:04.070Z,100090.13
2018-11-21T17:25:10.532Z,100084.46
2018-11-21T17:29:14.190Z,100091.00
2018-11-21T17:33:18.138Z,100093.06
2018-11-21T17:37:21.737Z,100083.70
2018-11-21T17:41:25.501Z,100078.70
2018-11-21T17:45:29.366Z,100086.19
2018-11-21T17:49:33.226Z,100088.10
2018-11-21T17:53:46.678Z,100094.77
2018-11-21T17:57:50.463Z,100096.43
2018-11-21T18:01:54.391Z,100095.20
2018-11-21T18:05:58.145Z,100094.33
2018-11-21T18:10:01.938Z,100095.68
2018-11-21T18:14:06.037Z,100103.48
2018-11-21T18:18:09.629Z,100106.89
2018-11-21T18:22:13.326Z,100109.12
2018-11-21T18:26:18.478Z,100105.31
2018-11-21T18:30:23.959Z,100106.27
2018-11-21T18:34:27.544Z,100118.52
2018-11-21T18:38:33.652Z,100113.68
2018-11-21T18:42:37.321Z,100119.74
2018-11-21T18:46:40.943Z,100122.75
2018-11-21T18:50:44.630Z,100124.55
2018-11-21T18:54:48.325Z,100122.88
2018-11-21T18:59:19.343Z,100125.97
2018-11-21T19:03:22.980Z,100129.94
2018-11-21T19:07:26.660Z,100132.99
2018-11-21T19:11:30.925Z,100135.21
2018-11-21T19:15:34.540Z,100143.54
2018-11-21T19:19:38.185Z,100144.93
2018-11-21T19:23:41.987Z,100143.85
2018-11-21T19:27:45.701Z,100149.96
2018-11-21T19:31:49.513Z,100147.02
2018-11-21T19:35:53.390Z,100149.69
2018-11-21T19:39:57.178Z,100153.97
2018-11-21T19:44:00.886Z,100153.80
2018-11-21T19:48:04.937Z,100157.42
2018-11-21T19:52:08.725Z,100152.28
2018-11-21T19:56:12.329Z,100157.42
2018-11-21T20:00:19.702Z,100153.63
2018-11-21T20:04:23.452Z,100156.05
2018-11-21T20:08:27.155Z,100162.16
2018-11-21T20:12:30.935Z,100162.50
2018-11-21T20:16:34.648Z,100167.59
2018-11-21T20:20:38.504Z,100172.73
2018-11-21T20:24:42.834Z,100175.44
2018-11-21T20:28:46.442Z,100182.55
2018-11-21T20:32:50.125Z,100179.06
2018-11-21T20:36:53.820Z,100195.77
2018-11-21T20:40:57.562Z,100195.85
2018-11-21T20:45:01.267Z,100192.41
2018-11-21T20:49:07.849Z,100202.39
2018-11-21T20:53:08.822Z,100197.89
2018-11-21T20:57:12.577Z,100202.55
2018-11-21T21:01:16.299Z,100203.37
2018-11-21T21:05:21.489Z,100206.37
2018-11-21T21:09:25.170Z,100202.35
2018-11-21T21:13:28.944Z,100200.91
2018-11-21T21:17:32.505Z,100202.64
2018-11-21T21:21:36.280Z,100203.48
2018-11-21T21:25:39.936Z,100206.03
2018-11-21T21:29:46.410Z,100205.02
2018-11-21T21:33:50.232Z,100204.44
2018-11-21T21:37:53.882Z,100212.28
2018-11-21T21:41:57.513Z,100210.09
2018-11-21T21:46:02.100Z,100212.66
2018-11-21T21:50:07.482Z,100209.52
2018-11-21T21:54:11.114Z,100210.24
2018-11-21T21:58:14.888Z,100210.13
2018-11-21T22:02:18.550Z,100209.98
2018-11-21T22:06:22.284Z,100209.80
2018-11-21T22:10:26.009Z,100218.73
2018-11-21T22:14:29.650Z,100215.88
2018-11-21T22:18:33.313Z,100228.66
2018-11-21T22:22:36.950Z,100225.88
2018-11-21T22:26:40.534Z,100227.09
2018-11-21T22:30:44.251Z,100228.84
2018-11-21T22:34:47.942Z,100226.61
2018-11-21T22:38:51.632Z,100235.97
2018-11-21T22:42:55.307Z,100229.27
2018-11-21T22:46:59.018Z,100231.34
2018-11-21T22:51:02.746Z,100225.73
2018-11-21T22:55:07.099Z,100229.71
2018-11-21T22:59:11.129Z,100223.02
2018-11-21T23:03:15.849Z,100224.70
2018-11-21T23:07:19.588Z,100230.08
2018-11-21T23:11:23.262Z,100238.17
2018-11-21T23:15:26.928Z,100225.39
2018-11-21T23:19:30.609Z,100236.15
2018-11-21T23:23:34.294Z,100232.98
2018-11-21T23:27:38.312Z,100245.34
2018-11-21T23:31:42.110Z,100241.20
2018-11-21T23:35:45.782Z,100245.01
2018-11-21T23:39:49.356Z,100245.38
2018-11-21T23:43:53.030Z,100249.30
2018-11-21T23:47:56.796Z,100247.22
2018-11-21T23:52:00.475Z,100243.81
2018-11-21T23:56:04.106Z,100248.16
